createdAt,value
2022-10-08T00:01:08.937Z,101816.41
2022-10-08T00:03:41.378Z,101818.16
2022-10-08T00:06:13.302Z,101771.41
2022-10-08T00:08:42.047Z,101815.59
2022-10-08T00:11:16.488Z,101830.34
2022-10-08T00:13:45.481Z,101839.91
2022-10-08T00:16:30.325Z,101841.66
2022-10-08T00:19:06.898Z,101841.63
2022-10-08T00:21:36.392Z,101837.31
2022-10-08T00:24:05.233Z,101843.38
2022-10-08T00:26:33.723Z,101829.56
2022-10-08T00:29:03.277Z,101846.03
2022-10-08T00:31:33.053Z,101837.38
2022-10-08T00:34:01.956Z,101853.84
2022-10-08T00:36:31.539Z,101857.31
2022-10-08T00:39:05.008Z,101858.19
2022-10-08T00:41:34.269Z,101865.16
2022-10-08T00:44:03.828Z,101843.47
2022-10-08T00:46:44.539Z,101853.03
2022-10-08T00:49:11.506Z,101875.56
2022-10-08T00:51:49.709Z,101859.97
2022-10-08T00:54:19.246Z,101872.13
2022-10-08T00:56:49.517Z,101868.66
2022-10-08T00:59:17.020Z,101880.78
2022-10-08T01:01:44.221Z,101866.06
2022-10-08T01:04:13.448Z,101865.19
2022-10-08T01:06:56.575Z,101871.28
2022-10-08T01:09:38.800Z,101886.00
2022-10-08T01:12:33.257Z,101882.53
2022-10-08T01:15:26.108Z,101887.75
2022-10-08T01:18:15.794Z,101893.81
2022-10-08T01:21:23.752Z,101892.97
2022-10-08T01:24:50.770Z,101898.16
2022-10-08T01:27:31.780Z,101905.94
2022-10-08T01:30:04.580Z,101915.50
2022-10-08T01:32:38.813Z,101895.53
2022-10-08T01:35:13.347Z,101896.41
2022-10-08T01:37:43.428Z,101894.66
2022-10-08T01:40:18.852Z,101903.31
2022-10-08T01:42:48.170Z,101892.94
2022-10-08T01:45:21.699Z,101910.28
2022-10-08T01:47:51.300Z,101906.81
2022-10-08T01:50:30.540Z,101898.09
2022-10-08T01:53:02.299Z,101914.56
2022-10-08T01:55:36.737Z,101909.34
2022-10-08T01:58:08.441Z,101908.50
2022-10-08T02:00:38.356Z,101903.28
2022-10-08T02:03:04.954Z,101914.56
2022-10-08T02:05:37.030Z,101911.06
2022-10-08T02:08:04.560Z,101908.47
2022-10-08T02:10:31.773Z,101905.00
2022-10-08T02:12:58.718Z,101910.16
2022-10-08T02:15:44.529Z,101913.63
2022-10-08T02:18:13.949Z,101917.06
2022-10-08T02:20:56.559Z,101919.63
2022-10-08T02:23:29.824Z,101923.97
2022-10-08T02:26:05.390Z,101934.34
2022-10-08T02:28:38.390Z,101927.41
2022-10-08T02:31:26.230Z,101923.94
2022-10-08T02:33:59.782Z,101908.25
2022-10-08T02:36:31.586Z,101931.66
2022-10-08T02:39:01.572Z,101909.06
2022-10-08T02:41:33.395Z,101930.75
2022-10-08T02:44:06.470Z,101908.09
2022-10-08T02:46:38.620Z,101931.56
2022-10-08T02:49:28.541Z,101935.00
2022-10-08T02:51:59.179Z,101930.66
2022-10-08T02:54:26.096Z,101915.00
2022-10-08T02:57:09.433Z,101920.19
2022-10-08T02:59:36.998Z,101934.94
2022-10-08T03:02:05.395Z,101927.13
2022-10-08T03:04:44.467Z,101909.75
2022-10-08T03:07:13.542Z,101935.78
2022-10-08T03:09:44.074Z,101940.09
2022-10-08T03:12:10.783Z,101936.56
2022-10-08T03:14:43.678Z,101939.16
2022-10-08T03:17:14.224Z,101937.41
2022-10-08T03:19:40.732Z,101929.53
2022-10-08T03:22:07.861Z,101949.44
2022-10-08T03:24:35.803Z,101948.56
2022-10-08T03:27:02.594Z,101956.38
2022-10-08T03:29:29.109Z,101954.59
2022-10-08T03:31:55.582Z,101974.53
2022-10-08T03:34:24.394Z,101962.38
2022-10-08T03:36:50.895Z,101954.56
2022-10-08T03:39:17.453Z,101954.53
2022-10-08T03:41:43.984Z,101962.38
2022-10-08T03:44:12.352Z,101945.81
2022-10-08T03:46:38.968Z,101974.47
2022-10-08T03:49:05.556Z,101946.63
2022-10-08T03:51:32.155Z,101977.91
2022-10-08T03:53:58.705Z,101945.81
2022-10-08T03:56:25.744Z,101975.28
2022-10-08T03:58:55.012Z,101982.19
2022-10-08T04:01:22.093Z,101960.41
2022-10-08T04:03:48.938Z,102002.88
2022-10-08T04:06:15.518Z,101991.53
2022-10-08T04:08:42.277Z,101999.34
2022-10-08T04:11:11.267Z,102000.16
2022-10-08T04:13:38.575Z,102004.56
2022-10-08T04:16:15.262Z,101999.34
2022-10-08T04:18:42.079Z,102008.03
2022-10-08T04:21:11.419Z,102008.88
2022-10-08T04:23:39.176Z,101988.00
2022-10-08T04:26:06.767Z,102016.59
2022-10-08T04:28:38.214Z,102012.19
2022-10-08T04:31:17.276Z,102030.34
2022-10-08T04:33:45.195Z,102039.75
2022-10-08T04:36:17.675Z,102060.50
2022-10-08T04:38:45.109Z,102050.91
2022-10-08T04:41:20.109Z,102045.59
2022-10-08T04:43:46.681Z,102029.94
2022-10-08T04:46:15.518Z,102064.69
2022-10-08T04:48:46.895Z,102066.34
2022-10-08T04:51:13.496Z,102068.03
2022-10-08T04:53:40.140Z,102054.06
2022-10-08T04:56:12.678Z,102072.28
2022-10-08T04:58:39.517Z,102076.53
2022-10-08T05:01:07.784Z,102078.22
2022-10-08T05:03:42.552Z,102086.84
2022-10-08T05:06:09.837Z,102037.19
2022-10-08T05:08:36.831Z,102039.75
2022-10-08T05:11:04.719Z,102078.06
2022-10-08T05:13:31.241Z,102077.88
2022-10-08T05:16:03.213Z,102095.25
2022-10-08T05:18:29.726Z,102095.22
2022-10-08T05:20:56.242Z,102097.81
2022-10-08T05:23:22.801Z,102066.41
2022-10-08T05:25:49.349Z,102077.63
2022-10-08T05:28:15.887Z,102101.88
2022-10-08T05:30:42.539Z,102098.34
2022-10-08T05:33:09.035Z,102113.94
2022-10-08T05:35:38.536Z,102101.63
2022-10-08T05:38:05.256Z,102105.09
2022-10-08T05:40:32.050Z,102132.72
2022-10-08T05:42:58.573Z,102097.94
2022-10-08T05:45:25.144Z,102130.84
2022-10-08T05:47:51.623Z,102145.59
2022-10-08T05:50:18.262Z,102142.03
2022-10-08T05:52:45.343Z,102149.81
2022-10-08T05:55:12.037Z,102136.69
2022-10-08T05:57:38.654Z,102144.47
2022-10-08T06:00:05.572Z,102149.59
2022-10-08T06:02:32.126Z,102122.59
2022-10-08T06:04:58.770Z,102153.88
2022-10-08T06:07:25.284Z,102133.75
2022-10-08T06:09:52.544Z,102121.59
2022-10-08T06:12:19.105Z,102156.41
2022-10-08T06:14:45.582Z,102155.56
2022-10-08T06:17:12.125Z,102168.50
2022-10-08T06:19:38.598Z,102157.22
2022-10-08T06:22:05.201Z,102171.09
2022-10-08T06:24:31.812Z,102175.44
2022-10-08T06:26:58.414Z,102168.47
2022-10-08T06:29:24.928Z,102182.38
2022-10-08T06:31:51.834Z,102175.34
2022-10-08T06:34:18.488Z,102145.69
2022-10-08T06:36:45.061Z,102192.75
2022-10-08T06:39:14.177Z,102185.72
2022-10-08T06:41:41.062Z,102196.16
2022-10-08T06:44:10.755Z,102210.03
2022-10-08T06:46:37.378Z,102194.34
2022-10-08T06:49:06.080Z,102194.34
2022-10-08T06:51:33.551Z,102215.28
2022-10-08T06:54:06.964Z,102193.34
2022-10-08T06:56:36.207Z,102223.03
2022-10-08T06:59:03.658Z,102234.28
2022-10-08T07:01:33.347Z,102238.63
2022-10-08T07:04:01.329Z,102240.44
2022-10-08T07:06:28.477Z,102236.09
2022-10-08T07:09:00.431Z,102243.13
2022-10-08T07:11:27.460Z,102254.50
2022-10-08T07:13:55.138Z,102253.72
2022-10-08T07:16:23.612Z,102259.91
2022-10-08T07:18:52.074Z,102266.06
2022-10-08T07:21:20.903Z,102265.25
2022-10-08T07:23:47.557Z,102266.22
2022-10-08T07:26:16.477Z,102278.50
2022-10-08T07:28:51.156Z,102271.72
2022-10-08T07:31:21.099Z,102247.41
2022-10-08T07:33:47.883Z,102268.41
2022-10-08T07:36:16.768Z,102287.81
2022-10-08T07:38:43.835Z,102280.91
2022-10-08T07:41:11.897Z,102273.22
2022-10-08T07:43:41.453Z,102250.72
2022-10-08T07:46:09.572Z,102308.31
2022-10-08T07:48:36.545Z,102304.06
2022-10-08T07:51:21.340Z,102288.56
2022-10-08T07:53:48.632Z,102311.41
2022-10-08T07:56:17.957Z,102299.22
2022-10-08T07:58:44.712Z,102315.06
2022-10-08T08:01:16.668Z,102314.28
2022-10-08T08:03:44.019Z,102301.28
2022-10-08T08:06:12.667Z,102332.69
2022-10-08T08:08:41.000Z,102305.78
2022-10-08T08:11:10.040Z,102327.66
2022-10-08T08:13:37.800Z,102332.91
2022-10-08T08:16:10.254Z,102344.31
2022-10-08T08:18:40.591Z,102322.59
2022-10-08T08:21:18.327Z,102339.25
2022-10-08T08:23:50.655Z,102342.81
2022-10-08T08:26:39.174Z,102308.91
2022-10-08T08:29:12.790Z,102334.25
2022-10-08T08:31:43.341Z,102346.50
2022-10-08T08:34:17.116Z,102314.31
2022-10-08T08:36:46.872Z,102350.94
2022-10-08T08:39:17.344Z,102352.75
2022-10-08T08:42:05.221Z,102345.84
2022-10-08T08:44:37.646Z,102337.19
2022-10-08T08:47:12.731Z,102361.56
2022-10-08T08:49:50.844Z,102323.38
2022-10-08T08:52:21.545Z,102366.94
2022-10-08T08:54:49.643Z,102341.75
2022-10-08T08:57:47.191Z,102373.94
2022-10-08T09:00:29.314Z,102379.22
2022-10-08T09:02:57.402Z,102367.06
2022-10-08T09:05:25.749Z,102325.34
2022-10-08T09:08:07.374Z,102378.44
2022-10-08T09:10:52.671Z,102372.34
2022-10-08T09:13:24.472Z,102381.09
2022-10-08T09:15:53.063Z,102386.28
2022-10-08T09:18:19.561Z,102376.69
2022-10-08T09:20:46.460Z,102364.53
2022-10-08T09:23:17.395Z,102388.81
2022-10-08T09:25:49.229Z,102382.66
2022-10-08T09:28:55.913Z,102381.66
2022-10-08T09:31:31.288Z,102388.44
2022-10-08T09:34:04.224Z,102342.22
2022-10-08T09:36:40.530Z,102357.72
2022-10-08T09:39:17.399Z,102338.44
2022-10-08T09:42:08.278Z,102372.91
2022-10-08T09:44:45.941Z,102372.69
2022-10-08T09:47:15.350Z,102383.69
2022-10-08T09:49:42.336Z,102376.63
2022-10-08T09:52:27.133Z,102383.47
2022-10-08T09:55:00.867Z,102361.59
2022-10-08T09:57:29.648Z,102374.34
2022-10-08T10:00:02.827Z,102364.59
2022-10-08T10:02:35.989Z,102376.44
2022-10-08T10:05:05.770Z,102383.09
2022-10-08T10:07:41.471Z,102354.25
2022-10-08T10:10:22.453Z,102386.16
2022-10-08T10:12:54.614Z,102359.88
2022-10-08T10:15:26.623Z,102386.66
2022-10-08T10:18:01.380Z,102385.59
2022-10-08T10:20:28.033Z,102390.56
2022-10-08T10:23:21.107Z,102387.69
2022-10-08T10:26:15.422Z,102364.03
2022-10-08T10:28:41.937Z,102384.69
2022-10-08T10:31:19.116Z,102374.47
2022-10-08T10:34:20.107Z,102376.06
2022-10-08T10:36:55.190Z,102381.16
2022-10-08T10:39:47.975Z,102385.28
2022-10-08T10:42:47.217Z,102382.38
2022-10-08T10:45:13.818Z,102388.97
2022-10-08T10:47:40.771Z,102381.63
2022-10-08T10:50:13.788Z,102381.41
2022-10-08T10:53:20.340Z,102386.53
2022-10-08T10:55:55.033Z,102391.56
2022-10-08T10:58:55.774Z,102396.59
2022-10-08T11:01:37.911Z,102375.53
2022-10-08T11:04:14.386Z,102394.53
2022-10-08T11:06:59.559Z,102389.00
2022-10-08T11:09:35.214Z,102387.06
2022-10-08T11:12:39.840Z,102365.97
2022-10-08T11:15:24.757Z,102382.78
2022-10-08T11:17:54.285Z,102387.56
2022-10-08T11:20:44.116Z,102389.84
2022-10-08T11:23:56.853Z,102386.94
2022-10-08T11:26:39.389Z,102378.44
2022-10-08T11:29:18.110Z,102389.97
2022-10-08T11:31:52.683Z,102385.72
2022-10-08T11:34:31.195Z,102391.00
2022-10-08T11:37:16.573Z,102394.53
2022-10-08T11:40:15.023Z,102377.22
2022-10-08T11:43:03.702Z,102386.06
2022-10-08T11:45:32.248Z,102362.84
2022-10-08T11:48:00.817Z,102377.41
2022-10-08T11:50:27.363Z,102393.97
2022-10-08T11:52:59.751Z,102392.47
2022-10-08T11:55:31.048Z,102392.56
2022-10-08T11:58:08.355Z,102375.28
2022-10-08T12:00:42.706Z,102366.00
2022-10-08T12:03:32.286Z,102379.91
2022-10-08T12:06:12.934Z,102380.78
2022-10-08T12:09:00.981Z,102371.09
2022-10-08T12:11:37.410Z,102385.38
2022-10-08T12:14:27.110Z,102382.31
2022-10-08T12:16:57.142Z,102380.94
2022-10-08T12:19:35.865Z,102374.19
2022-10-08T12:22:14.685Z,102380.50
2022-10-08T12:24:42.977Z,102376.16
2022-10-08T12:27:18.716Z,102373.63
2022-10-08T12:29:55.834Z,102378.16
2022-10-08T12:32:31.470Z,102363.25
2022-10-08T12:34:58.982Z,102371.16
2022-10-08T12:37:31.146Z,102371.41
2022-10-08T12:40:03.187Z,102318.09
2022-10-08T12:42:37.432Z,102358.19
2022-10-08T12:45:22.379Z,102359.22
2022-10-08T12:47:52.009Z,102368.88
2022-10-08T12:50:37.299Z,102360.94
2022-10-08T12:53:06.259Z,102361.16
2022-10-08T12:55:43.664Z,102346.66
2022-10-08T12:58:17.851Z,102349.41
2022-10-08T13:00:45.638Z,102308.72
2022-10-08T13:03:17.508Z,102350.22
2022-10-08T13:05:44.460Z,102358.06
2022-10-08T13:08:39.391Z,102348.38
2022-10-08T13:11:13.892Z,102345.66
2022-10-08T13:13:40.391Z,102339.53
2022-10-08T13:16:07.120Z,102345.66
2022-10-08T13:18:35.659Z,102344.97
2022-10-08T13:21:05.322Z,102305.28
2022-10-08T13:23:40.834Z,102332.09
2022-10-08T13:26:38.266Z,102334.84
2022-10-08T13:29:37.305Z,102339.19
2022-10-08T13:32:14.847Z,102293.31
2022-10-08T13:34:41.329Z,102339.22
2022-10-08T13:37:15.785Z,102338.47
2022-10-08T13:39:50.810Z,102328.09
2022-10-08T13:42:19.944Z,102325.59
2022-10-08T13:44:46.539Z,102334.94
2022-10-08T13:47:15.407Z,102323.66
2022-10-08T13:49:42.379Z,102331.47
2022-10-08T13:52:15.725Z,102344.41
2022-10-08T13:54:42.622Z,102342.50
2022-10-08T13:57:09.968Z,102344.19
2022-10-08T13:59:36.895Z,102340.69
2022-10-08T14:02:04.390Z,102338.16
2022-10-08T14:04:30.994Z,102319.06
2022-10-08T14:06:58.539Z,102353.81
2022-10-08T14:09:28.208Z,102352.06
2022-10-08T14:11:56.960Z,102343.34
2022-10-08T14:14:24.262Z,102343.31
2022-10-08T14:16:51.727Z,102344.97
2022-10-08T14:19:20.471Z,102346.66
2022-10-08T14:21:50.022Z,102320.41
2022-10-08T14:24:17.132Z,102339.41
2022-10-08T14:26:43.665Z,102339.25
2022-10-08T14:29:10.227Z,102324.53
2022-10-08T14:31:36.819Z,102340.94
2022-10-08T14:34:03.727Z,102341.59
2022-10-08T14:36:36.581Z,102343.91
2022-10-08T14:39:04.822Z,102298.50
2022-10-08T14:41:32.029Z,102284.19
2022-10-08T14:43:59.044Z,102330.53
2022-10-08T14:46:25.600Z,102326.63
2022-10-08T14:48:52.256Z,102326.31
2022-10-08T14:51:18.822Z,102317.00
2022-10-08T14:53:45.434Z,102311.38
2022-10-08T14:56:12.973Z,102324.66
2022-10-08T14:58:40.333Z,102325.84
2022-10-08T15:01:07.152Z,102315.72
2022-10-08T15:03:33.997Z,102328.28
2022-10-08T15:06:00.868Z,102319.09
2022-10-08T15:08:28.439Z,102317.63
2022-10-08T15:10:54.958Z,102314.69
2022-10-08T15:13:21.571Z,102314.59
2022-10-08T15:15:48.067Z,102314.28
2022-10-08T15:18:14.618Z,102319.47
2022-10-08T15:20:41.137Z,102316.66
2022-10-08T15:23:10.241Z,102325.94
2022-10-08T15:25:37.053Z,102319.72
2022-10-08T15:28:03.788Z,102296.41
2022-10-08T15:30:30.307Z,102307.47
2022-10-08T15:32:56.997Z,102313.66
2022-10-08T15:35:23.516Z,102308.44
2022-10-08T15:37:50.030Z,102265.53
2022-10-08T15:40:16.571Z,102314.47
2022-10-08T15:42:43.055Z,102313.19
2022-10-08T15:45:09.775Z,102289.44
2022-10-08T15:47:36.330Z,102302.00
2022-10-08T15:50:03.174Z,102305.94
2022-10-08T15:52:29.729Z,102305.50
2022-10-08T15:54:56.463Z,102298.03
2022-10-08T15:57:23.114Z,102268.09
2022-10-08T15:59:49.639Z,102283.00
2022-10-08T16:02:17.918Z,102297.91
2022-10-08T16:04:48.211Z,102299.00
2022-10-08T16:07:15.675Z,102264.44
2022-10-08T16:09:42.217Z,102263.16
2022-10-08T16:12:08.720Z,102295.59
2022-10-08T16:14:35.408Z,102299.44
2022-10-08T16:17:02.920Z,102276.53
2022-10-08T16:19:29.630Z,102288.97
2022-10-08T16:21:58.461Z,102301.19
2022-10-08T16:24:25.473Z,102263.47
2022-10-08T16:26:52.400Z,102303.50
2022-10-08T16:29:19.728Z,102291.63
2022-10-08T16:31:47.648Z,102291.00
2022-10-08T16:34:20.235Z,102294.75
2022-10-08T16:36:48.428Z,102292.25
2022-10-08T16:39:18.263Z,102281.19
2022-10-08T16:41:45.499Z,102298.03
2022-10-08T16:44:14.469Z,102303.44
2022-10-08T16:46:48.353Z,102306.31
2022-10-08T16:49:27.012Z,102303.03
2022-10-08T16:51:57.512Z,102287.59
2022-10-08T16:54:24.363Z,102302.44
2022-10-08T16:56:50.859Z,102297.44
2022-10-08T16:59:20.655Z,102301.06
2022-10-08T17:01:50.807Z,102278.75
2022-10-08T17:04:18.396Z,102300.53
2022-10-08T17:06:45.383Z,102288.53
2022-10-08T17:09:12.201Z,102305.31
2022-10-08T17:11:40.026Z,102295.88
2022-10-08T17:14:07.851Z,102290.00
2022-10-08T17:16:35.729Z,102300.56
2022-10-08T17:19:03.487Z,102300.75
2022-10-08T17:21:31.309Z,102309.59
2022-10-08T17:23:58.828Z,102310.59
2022-10-08T17:26:27.514Z,102310.75
2022-10-08T17:28:54.977Z,102291.84
2022-10-08T17:31:24.113Z,102311.91
2022-10-08T17:33:50.694Z,102305.06
2022-10-08T17:36:22.508Z,102319.09
2022-10-08T17:38:51.603Z,102324.38
2022-10-08T17:41:20.945Z,102324.50
2022-10-08T17:43:49.043Z,102321.97
2022-10-08T17:46:21.863Z,102325.56
2022-10-08T17:48:49.210Z,102312.63
2022-10-08T17:51:18.533Z,102322.19
2022-10-08T17:53:50.821Z,102324.91
2022-10-08T17:56:18.769Z,102336.31
2022-10-08T17:58:45.541Z,102326.78
2022-10-08T18:01:18.258Z,102313.81
2022-10-08T18:03:53.358Z,102312.09
2022-10-08T18:06:20.341Z,102311.28
2022-10-08T18:08:46.950Z,102337.38
2022-10-08T18:11:15.138Z,102349.63
2022-10-08T18:13:42.091Z,102335.69
2022-10-08T18:16:17.706Z,102344.47
2022-10-08T18:18:45.536Z,102347.94
2022-10-08T18:21:13.529Z,102350.59
2022-10-08T18:23:45.987Z,102349.72
2022-10-08T18:26:24.064Z,102339.28
2022-10-08T18:28:52.939Z,102342.78
2022-10-08T18:31:21.538Z,102319.31
2022-10-08T18:33:50.607Z,102356.72
2022-10-08T18:36:19.719Z,102348.00
2022-10-08T18:38:48.055Z,102361.09
2022-10-08T18:41:18.069Z,102353.25
2022-10-08T18:43:45.383Z,102352.38
2022-10-08T18:46:12.846Z,102350.63
2022-10-08T18:48:39.890Z,102359.31
2022-10-08T18:51:14.452Z,102353.25
2022-10-08T18:53:42.673Z,102368.88
2022-10-08T18:56:15.809Z,102361.91
2022-10-08T18:58:42.572Z,102358.44
2022-10-08T19:01:27.182Z,102352.31
2022-10-08T19:03:56.310Z,102358.34
2022-10-08T19:06:25.503Z,102379.25
2022-10-08T19:08:52.244Z,102380.97
2022-10-08T19:11:21.315Z,102373.13
2022-10-08T19:13:49.677Z,102374.00
2022-10-08T19:16:16.329Z,102354.84
2022-10-08T19:18:54.814Z,102384.41
2022-10-08T19:21:23.511Z,102363.50
2022-10-08T19:23:50.530Z,102380.00
2022-10-08T19:26:17.139Z,102372.16
2022-10-08T19:28:49.679Z,102372.16
2022-10-08T19:31:20.944Z,102380.84
2022-10-08T19:34:00.556Z,102379.13
2022-10-08T19:36:31.603Z,102355.53
2022-10-08T19:39:01.054Z,102377.31
2022-10-08T19:41:28.947Z,102375.56
2022-10-08T19:43:56.833Z,102372.03
2022-10-08T19:46:24.545Z,102367.69
2022-10-08T19:48:53.145Z,102375.47
2022-10-08T19:51:20.125Z,102380.69
2022-10-08T19:53:46.744Z,102373.69
2022-10-08T19:56:13.768Z,102373.66
2022-10-08T19:58:46.283Z,102359.69
2022-10-08T20:01:18.188Z,102358.81
2022-10-08T20:03:45.019Z,102373.56
2022-10-08T20:06:13.962Z,102350.88
2022-10-08T20:08:40.885Z,102381.34
2022-10-08T20:11:10.773Z,102371.75
2022-10-08T20:13:37.668Z,102362.16
2022-10-08T20:16:10.649Z,102364.72
2022-10-08T20:18:38.006Z,102385.56
2022-10-08T20:21:10.347Z,102352.41
2022-10-08T20:23:38.471Z,102388.94
2022-10-08T20:26:26.552Z,102383.72
2022-10-08T20:29:00.618Z,102375.00
2022-10-08T20:31:34.106Z,102352.34
2022-10-08T20:34:01.843Z,102380.16
2022-10-08T20:36:29.527Z,102347.03
2022-10-08T20:38:56.433Z,102340.03
2022-10-08T20:41:26.796Z,102353.91
2022-10-08T20:44:00.493Z,102325.16
2022-10-08T20:46:27.490Z,102360.81
2022-10-08T20:48:54.146Z,102339.91
2022-10-08T20:51:23.182Z,102371.22
2022-10-08T20:54:01.015Z,102378.97
2022-10-08T20:56:29.139Z,102368.50
2022-10-08T20:58:56.460Z,102374.56
2022-10-08T21:01:25.628Z,102378.88
2022-10-08T21:03:53.358Z,102368.44
2022-10-08T21:06:25.153Z,102372.75
2022-10-08T21:08:54.250Z,102370.97
2022-10-08T21:11:23.225Z,102369.19
2022-10-08T21:13:50.603Z,102322.97
2022-10-08T21:16:19.923Z,102376.09
2022-10-08T21:18:51.334Z,102328.94
2022-10-08T21:21:18.188Z,102348.09
2022-10-08T21:23:48.983Z,102382.91
2022-10-08T21:26:20.252Z,102387.19
2022-10-08T21:28:49.002Z,102388.03
2022-10-08T21:31:16.804Z,102339.19
2022-10-08T21:33:46.278Z,102388.81
2022-10-08T21:36:16.091Z,102384.47
2022-10-08T21:38:43.487Z,102378.38
2022-10-08T21:41:13.100Z,102362.63
2022-10-08T21:43:41.915Z,102356.50
2022-10-08T21:46:10.544Z,102378.31
2022-10-08T21:48:37.765Z,102368.66
2022-10-08T21:51:20.170Z,102379.13
2022-10-08T21:53:56.044Z,102377.41
2022-10-08T21:56:25.068Z,102377.41
2022-10-08T21:58:59.664Z,102367.00
2022-10-08T22:01:28.981Z,102371.31
2022-10-08T22:04:01.944Z,102368.66
2022-10-08T22:06:30.545Z,102367.75
2022-10-08T22:08:57.985Z,102329.41
2022-10-08T22:11:25.084Z,102374.63
2022-10-08T22:13:52.696Z,102368.53
2022-10-08T22:16:20.845Z,102356.34
2022-10-08T22:18:47.807Z,102360.66
2022-10-08T22:21:22.209Z,102364.09
2022-10-08T22:23:50.242Z,102330.09
2022-10-08T22:26:23.159Z,102361.41
2022-10-08T22:28:50.442Z,102322.97
2022-10-08T22:31:18.678Z,102360.38
2022-10-08T22:33:46.302Z,102356.91
2022-10-08T22:36:19.115Z,102326.34
2022-10-08T22:38:46.888Z,102348.16
2022-10-08T22:41:19.053Z,102343.75
2022-10-08T22:43:45.867Z,102328.97
2022-10-08T22:46:16.959Z,102343.69
2022-10-08T22:48:44.181Z,102335.84
2022-10-08T22:51:13.860Z,102322.78
2022-10-08T22:53:40.894Z,102309.63
2022-10-08T22:56:12.835Z,102331.38
2022-10-08T22:58:39.509Z,102318.38
2022-10-08T23:01:08.998Z,102320.88
2022-10-08T23:03:36.507Z,102320.00
2022-10-08T23:06:20.547Z,102287.72
2022-10-08T23:08:51.450Z,102317.34
2022-10-08T23:11:18.014Z,102310.31
2022-10-08T23:13:47.266Z,102299.06
2022-10-08T23:16:15.253Z,102305.97
2022-10-08T23:18:43.874Z,102284.19
2022-10-08T23:21:16.578Z,102292.00
2022-10-08T23:23:47.788Z,102303.25
2022-10-08T23:26:15.878Z,102291.91
2022-10-08T23:28:43.722Z,102292.78
2022-10-08T23:31:15.549Z,102284.91
2022-10-08T23:33:44.570Z,102289.25
2022-10-08T23:36:17.277Z,102281.25
2022-10-08T23:38:44.405Z,102270.84
2022-10-08T23:41:12.214Z,102289.09
2022-10-08T23:43:44.148Z,102285.63
2022-10-08T23:46:13.171Z,102283.84
2022-10-08T23:48:40.708Z,102243.66
2022-10-08T23:51:09.115Z,102279.47
2022-10-08T23:53:36.500Z,102255.94
2022-10-08T23:56:03.761Z,102260.31
2022-10-08T23:58:30.734Z,102246.25
